createdAt,value
2022-11-16T00:00:44.226Z,980.30
2022-11-16T00:02:48.177Z,980.31
2022-11-16T00:03:48.150Z,980.29
2022-11-16T00:05:52.133Z,980.29
2022-11-16T00:06:52.119Z,980.25
2022-11-16T00:08:56.065Z,980.28
2022-11-16T00:09:56.022Z,980.23
2022-11-16T00:11:59.992Z,980.30
2022-11-16T00:12:59.954Z,980.29
2022-11-16T00:15:03.910Z,980.23
2022-11-16T00:16:03.872Z,980.25
2022-11-16T00:18:07.826Z,980.21
2022-11-16T00:19:07.804Z,980.22
2022-11-16T00:21:11.789Z,980.20
2022-11-16T00:22:11.737Z,980.21
2022-11-16T00:24:15.720Z,980.24
2022-11-16T00:25:15.668Z,980.19
2022-11-16T00:27:08.562Z,980.23
2022-11-16T00:28:08.541Z,980.25
2022-11-16T00:30:12.504Z,980.20
2022-11-16T00:31:12.471Z,980.22
2022-11-16T00:33:16.426Z,980.23
2022-11-16T00:34:16.402Z,980.21
2022-11-16T00:36:20.363Z,980.22
2022-11-16T00:37:20.314Z,980.24
2022-11-16T00:39:24.276Z,980.20
2022-11-16T00:40:24.241Z,980.23
2022-11-16T00:42:28.209Z,980.23
2022-11-16T00:43:28.169Z,980.20
2022-11-16T00:45:32.142Z,980.16
2022-11-16T00:46:32.108Z,980.20
2022-11-16T00:48:36.348Z,980.16
2022-11-16T00:49:36.040Z,980.20
2022-11-16T00:51:40.004Z,980.25
2022-11-16T00:52:39.969Z,980.23
2022-11-16T00:53:39.955Z,980.23
2022-11-16T00:54:39.937Z,980.26
2022-11-16T00:55:39.919Z,980.24
2022-11-16T00:56:39.904Z,980.27
2022-11-16T00:57:39.881Z,980.22
2022-11-16T00:58:39.881Z,980.23
2022-11-16T00:59:39.848Z,980.25
2022-11-16T01:00:39.837Z,980.26
2022-11-16T01:01:39.909Z,980.22
2022-11-16T01:02:39.797Z,980.23
2022-11-16T01:03:39.778Z,980.20
2022-11-16T01:04:39.766Z,980.21
2022-11-16T01:05:39.746Z,980.21
2022-11-16T01:06:39.729Z,980.19
2022-11-16T01:07:39.712Z,980.19
2022-11-16T01:08:39.693Z,980.18
2022-11-16T01:09:39.675Z,980.21
2022-11-16T01:10:39.665Z,980.19
2022-11-16T01:11:39.642Z,980.17
2022-11-16T01:12:39.627Z,980.17
2022-11-16T01:13:39.606Z,980.15
2022-11-16T01:14:39.591Z,980.15
2022-11-16T01:15:39.571Z,980.14
2022-11-16T01:16:39.558Z,980.13
2022-11-16T01:17:39.537Z,980.14
2022-11-16T01:18:39.522Z,980.20
2022-11-16T01:19:39.503Z,980.13
2022-11-16T01:20:39.487Z,980.09
2022-11-16T01:21:39.469Z,980.12
2022-11-16T01:22:39.454Z,980.16
2022-11-16T01:23:39.434Z,980.12
2022-11-16T01:24:39.417Z,980.13
2022-11-16T01:25:39.401Z,980.11
2022-11-16T01:26:39.387Z,980.11
2022-11-16T01:27:39.364Z,980.10
2022-11-16T01:28:39.418Z,980.10
2022-11-16T01:29:39.329Z,980.07
2022-11-16T01:30:39.321Z,980.04
2022-11-16T01:31:39.293Z,980.07
2022-11-16T01:32:39.277Z,980.06
2022-11-16T01:33:39.270Z,980.06
2022-11-16T01:34:39.247Z,980.05
2022-11-16T01:35:39.225Z,980.04
2022-11-16T01:36:39.211Z,979.97
2022-11-16T01:37:39.190Z,979.98
2022-11-16T01:38:39.177Z,979.95
2022-11-16T01:39:39.158Z,979.98
2022-11-16T01:40:39.141Z,979.97
2022-11-16T01:41:39.120Z,979.98
2022-11-16T01:42:39.107Z,979.97
2022-11-16T01:43:39.089Z,979.98
2022-11-16T01:44:39.073Z,979.97
2022-11-16T01:45:39.052Z,979.96
2022-11-16T01:46:39.035Z,979.97
2022-11-16T01:47:39.019Z,979.96
2022-11-16T01:48:39.358Z,979.91
2022-11-16T01:49:38.989Z,979.89
2022-11-16T01:50:38.965Z,979.88
2022-11-16T01:51:38.947Z,979.83
2022-11-16T01:52:38.935Z,979.85
2022-11-16T01:53:38.911Z,979.78
2022-11-16T01:54:38.896Z,979.78
2022-11-16T01:55:38.878Z,979.77
2022-11-16T01:56:38.861Z,979.80
2022-11-16T01:57:38.842Z,979.77
2022-11-16T01:58:38.830Z,979.77
2022-11-16T01:59:38.808Z,979.80
2022-11-16T02:00:38.794Z,979.77
2022-11-16T02:01:38.803Z,979.78
2022-11-16T02:02:38.756Z,979.74
2022-11-16T02:03:38.741Z,979.75
2022-11-16T02:04:38.722Z,979.72
2022-11-16T02:05:38.711Z,979.71
2022-11-16T02:06:38.688Z,979.71
2022-11-16T02:07:38.668Z,979.71
2022-11-16T02:08:38.653Z,979.72
2022-11-16T02:09:38.631Z,979.70
2022-11-16T02:10:38.617Z,979.70
2022-11-16T02:11:38.598Z,979.68
2022-11-16T02:12:38.583Z,979.67
2022-11-16T02:13:38.560Z,979.65
2022-11-16T02:14:38.549Z,979.62
2022-11-16T02:15:38.536Z,979.62
2022-11-16T02:16:38.513Z,979.58
2022-11-16T02:17:38.493Z,979.59
2022-11-16T02:18:38.479Z,979.59
2022-11-16T02:19:38.461Z,979.55
2022-11-16T02:20:38.443Z,979.52
2022-11-16T02:21:38.421Z,979.57
2022-11-16T02:22:38.408Z,979.54
2022-11-16T02:23:38.438Z,979.52
2022-11-16T02:24:38.374Z,979.53
2022-11-16T02:25:38.360Z,979.55
2022-11-16T02:26:38.341Z,979.56
2022-11-16T02:27:38.318Z,979.53
2022-11-16T02:28:38.302Z,979.54
2022-11-16T02:29:38.282Z,979.57
2022-11-16T02:30:38.269Z,979.55
2022-11-16T02:31:38.249Z,979.52
2022-11-16T02:32:38.234Z,979.58
2022-11-16T02:33:38.213Z,979.51
2022-11-16T02:34:38.197Z,979.58
2022-11-16T02:35:38.178Z,979.53
2022-11-16T02:36:38.162Z,979.52
2022-11-16T02:37:38.142Z,979.51
2022-11-16T02:38:38.127Z,979.53
2022-11-16T02:39:38.113Z,979.51
2022-11-16T02:40:38.091Z,979.55
2022-11-16T02:41:38.072Z,979.51
2022-11-16T02:42:38.055Z,979.53
2022-11-16T02:43:38.048Z,979.51
2022-11-16T02:44:38.021Z,979.53
2022-11-16T02:45:38.003Z,979.57
2022-11-16T02:46:37.999Z,979.55
2022-11-16T02:47:37.967Z,979.55
2022-11-16T02:48:37.950Z,979.56
2022-11-16T02:49:37.933Z,979.56
2022-11-16T02:50:37.924Z,979.53
2022-11-16T02:51:37.900Z,979.52
2022-11-16T02:52:37.880Z,979.50
2022-11-16T02:53:37.860Z,979.52
2022-11-16T02:54:37.846Z,979.50
2022-11-16T02:55:37.832Z,979.48
2022-11-16T02:56:37.814Z,979.49
2022-11-16T02:57:37.793Z,979.47
2022-11-16T02:58:37.779Z,979.47
2022-11-16T02:59:37.759Z,979.47
2022-11-16T03:00:37.792Z,979.45
2022-11-16T03:01:37.721Z,979.40
2022-11-16T03:02:37.709Z,979.37
2022-11-16T03:03:37.689Z,979.39
2022-11-16T03:04:37.672Z,979.36
2022-11-16T03:05:37.654Z,979.42
2022-11-16T03:06:37.638Z,979.41
2022-11-16T03:07:37.617Z,979.41
2022-11-16T03:08:37.600Z,979.39
2022-11-16T03:09:37.580Z,979.37
2022-11-16T03:10:37.567Z,979.34
2022-11-16T03:11:37.548Z,979.35
2022-11-16T03:12:37.533Z,979.35
2022-11-16T03:13:37.510Z,979.30
2022-11-16T03:14:37.497Z,979.30
2022-11-16T03:15:37.475Z,979.29
2022-11-16T03:16:37.461Z,979.29
2022-11-16T03:17:37.440Z,979.29
2022-11-16T03:18:37.426Z,979.31
2022-11-16T03:19:37.405Z,979.34
2022-11-16T03:20:37.389Z,979.29
2022-11-16T03:21:37.370Z,979.29
2022-11-16T03:22:37.355Z,979.32
2022-11-16T03:23:37.335Z,979.32
2022-11-16T03:24:37.320Z,979.32
2022-11-16T03:25:37.301Z,979.31
2022-11-16T03:26:37.289Z,979.32
2022-11-16T03:27:37.265Z,979.31
2022-11-16T03:28:37.248Z,979.36
2022-11-16T03:29:37.229Z,979.36
2022-11-16T03:30:37.235Z,979.34
2022-11-16T03:31:37.193Z,979.37
2022-11-16T03:32:37.176Z,979.43
2022-11-16T03:33:37.159Z,979.40
2022-11-16T03:34:37.148Z,979.40
2022-11-16T03:35:37.127Z,979.39
2022-11-16T03:36:37.108Z,979.42
2022-11-16T03:37:37.093Z,979.45
2022-11-16T03:38:37.397Z,979.45
2022-11-16T03:39:37.054Z,979.45
2022-11-16T03:40:37.039Z,979.50
2022-11-16T03:41:37.018Z,979.42
2022-11-16T03:42:37.001Z,979.45
2022-11-16T03:43:36.990Z,979.42
2022-11-16T03:44:36.967Z,979.48
2022-11-16T03:45:36.949Z,979.47
2022-11-16T03:46:36.932Z,979.47
2022-11-16T03:47:36.914Z,979.49
2022-11-16T03:48:37.099Z,979.47
2022-11-16T03:49:36.876Z,979.48
2022-11-16T03:50:36.859Z,979.44
2022-11-16T03:51:36.841Z,979.47
2022-11-16T03:52:36.824Z,979.47
2022-11-16T03:53:36.808Z,979.43
2022-11-16T03:54:36.788Z,979.48
2022-11-16T03:55:36.773Z,979.43
2022-11-16T03:56:36.753Z,979.51
2022-11-16T03:57:36.735Z,979.46
2022-11-16T03:58:36.902Z,979.47
2022-11-16T03:59:36.701Z,979.50
2022-11-16T04:00:36.714Z,979.52
2022-11-16T04:01:41.780Z,979.43
2022-11-16T04:02:36.644Z,979.40
2022-11-16T04:03:36.632Z,979.43
2022-11-16T04:04:36.609Z,979.43
2022-11-16T04:05:36.594Z,979.44
2022-11-16T04:06:36.577Z,979.46
2022-11-16T04:07:36.616Z,979.48
2022-11-16T04:08:36.879Z,979.48
2022-11-16T04:09:36.521Z,979.52
2022-11-16T04:10:36.502Z,979.46
2022-11-16T04:11:36.487Z,979.47
2022-11-16T04:12:36.468Z,979.49
2022-11-16T04:13:36.452Z,979.50
2022-11-16T04:14:36.433Z,979.52
2022-11-16T04:15:36.415Z,979.49
2022-11-16T04:16:36.401Z,979.48
2022-11-16T04:17:36.383Z,979.51
2022-11-16T04:18:36.652Z,979.54
2022-11-16T04:19:36.344Z,979.46
2022-11-16T04:20:36.330Z,979.51
2022-11-16T04:21:36.311Z,979.51
2022-11-16T04:22:36.290Z,979.51
2022-11-16T04:23:36.278Z,979.48
2022-11-16T04:24:36.253Z,979.59
2022-11-16T04:25:36.240Z,979.49
2022-11-16T04:26:36.219Z,979.51
2022-11-16T04:27:36.202Z,979.53
2022-11-16T04:28:36.696Z,979.48
2022-11-16T04:29:36.167Z,979.49
2022-11-16T04:30:36.148Z,979.53
2022-11-16T04:31:36.133Z,979.48
2022-11-16T04:32:36.111Z,979.53
2022-11-16T04:33:36.095Z,979.47
2022-11-16T04:34:36.077Z,979.49
2022-11-16T04:35:36.059Z,979.47
2022-11-16T04:36:36.041Z,979.41
2022-11-16T04:37:36.025Z,979.43
2022-11-16T04:38:36.392Z,979.49
2022-11-16T04:39:35.990Z,979.48
2022-11-16T04:40:35.969Z,979.59
2022-11-16T04:41:35.969Z,979.49
2022-11-16T04:42:35.937Z,979.48
2022-11-16T04:43:35.917Z,979.44
2022-11-16T04:44:35.900Z,979.44
2022-11-16T04:45:35.893Z,979.46
2022-11-16T04:46:35.861Z,979.51
2022-11-16T04:47:35.847Z,979.58
2022-11-16T04:48:36.231Z,979.57
2022-11-16T04:49:35.811Z,979.58
2022-11-16T04:50:35.793Z,979.60
2022-11-16T04:51:35.778Z,979.61
2022-11-16T04:52:35.756Z,979.54
2022-11-16T04:53:35.740Z,979.54
2022-11-16T04:54:35.721Z,979.54
2022-11-16T04:55:35.706Z,979.52
2022-11-16T04:56:35.689Z,979.55
2022-11-16T04:57:35.675Z,979.41
2022-11-16T04:58:35.957Z,979.41
2022-11-16T04:59:35.633Z,979.47
2022-11-16T05:00:35.615Z,979.58
2022-11-16T05:01:35.614Z,979.65
2022-11-16T05:02:35.579Z,979.69
2022-11-16T05:03:35.562Z,979.70
2022-11-16T05:04:35.545Z,979.73
2022-11-16T05:05:35.524Z,979.79
2022-11-16T05:06:35.508Z,979.85
2022-11-16T05:07:35.566Z,979.85
2022-11-16T05:08:35.856Z,979.89
2022-11-16T05:09:35.457Z,979.90
2022-11-16T05:10:35.436Z,979.88
2022-11-16T05:11:35.423Z,979.90
2022-11-16T05:12:35.403Z,979.85
2022-11-16T05:13:35.384Z,979.84
2022-11-16T05:14:35.368Z,979.82
2022-11-16T05:15:35.351Z,979.83
2022-11-16T05:16:35.333Z,979.78
2022-11-16T05:17:35.321Z,979.74
2022-11-16T05:18:35.600Z,979.76
2022-11-16T05:19:35.278Z,979.75
2022-11-16T05:20:35.262Z,979.75
2022-11-16T05:21:35.244Z,979.67
2022-11-16T05:22:35.227Z,979.69
2022-11-16T05:23:35.208Z,979.68
2022-11-16T05:24:35.189Z,979.69
2022-11-16T05:25:37.001Z,979.76
2022-11-16T05:26:35.155Z,979.73
2022-11-16T05:27:35.137Z,979.77
2022-11-16T05:28:35.417Z,979.79
2022-11-16T05:29:35.101Z,979.84
2022-11-16T05:30:35.083Z,979.89
2022-11-16T05:31:40.187Z,979.93
2022-11-16T05:32:35.048Z,979.90
2022-11-16T05:33:35.032Z,979.93
2022-11-16T05:34:35.015Z,979.93
2022-11-16T05:35:34.997Z,979.97
2022-11-16T05:36:34.978Z,979.91
2022-11-16T05:37:34.965Z,979.95
2022-11-16T05:38:35.277Z,979.89
2022-11-16T05:39:42.097Z,979.91
2022-11-16T05:41:38.895Z,979.87
2022-11-16T05:42:38.858Z,979.84
2022-11-16T05:44:42.838Z,979.86
2022-11-16T05:45:42.798Z,979.83
2022-11-16T05:47:46.754Z,979.86
2022-11-16T05:48:46.732Z,979.87
2022-11-16T05:50:42.796Z,979.91
2022-11-16T05:51:39.578Z,979.89
2022-11-16T05:53:43.537Z,979.92
2022-11-16T05:54:43.509Z,979.91
2022-11-16T05:56:47.474Z,979.95
2022-11-16T05:57:47.434Z,979.94
2022-11-16T05:59:51.406Z,979.96
2022-11-16T06:00:51.365Z,980.02
2022-11-16T06:02:55.374Z,979.98
2022-11-16T06:03:55.299Z,979.99
2022-11-16T06:05:59.263Z,980.02
2022-11-16T06:06:59.298Z,980.04
2022-11-16T06:09:03.193Z,980.00
2022-11-16T06:10:03.156Z,979.99
2022-11-16T06:12:07.109Z,980.01
2022-11-16T06:13:07.097Z,980.01
2022-11-16T06:15:11.055Z,980.02
2022-11-16T06:16:11.257Z,980.00
2022-11-16T06:18:14.982Z,980.05
2022-11-16T06:19:14.941Z,980.06
2022-11-16T06:21:18.903Z,980.05
2022-11-16T06:22:18.871Z,980.06
2022-11-16T06:24:22.845Z,980.07
2022-11-16T06:25:22.803Z,980.10
2022-11-16T06:27:26.768Z,980.11
2022-11-16T06:28:26.738Z,980.14
2022-11-16T06:30:19.629Z,980.19
2022-11-16T06:31:19.824Z,980.15
2022-11-16T06:33:23.563Z,980.20
2022-11-16T06:34:23.527Z,980.18
2022-11-16T06:36:27.476Z,980.19
2022-11-16T06:37:27.449Z,980.19
2022-11-16T06:39:31.411Z,980.20
2022-11-16T06:40:31.378Z,980.17
2022-11-16T06:42:35.336Z,980.16
2022-11-16T06:43:35.305Z,980.15
2022-11-16T06:45:39.272Z,980.18
2022-11-16T06:46:39.235Z,980.16
2022-11-16T06:48:43.212Z,980.25
2022-11-16T06:49:43.163Z,980.20
2022-11-16T06:51:47.115Z,980.25
2022-11-16T06:52:47.093Z,980.29
2022-11-16T06:54:51.057Z,980.29
2022-11-16T06:55:51.019Z,980.32
2022-11-16T06:57:54.968Z,980.33
2022-11-16T06:58:54.947Z,980.35
2022-11-16T07:00:47.845Z,980.34
2022-11-16T07:01:47.952Z,980.38
2022-11-16T07:03:51.770Z,980.39
2022-11-16T07:04:51.738Z,980.38
2022-11-16T07:06:55.707Z,980.32
2022-11-16T07:07:55.652Z,980.35
2022-11-16T07:09:59.617Z,980.35
2022-11-16T07:11:04.049Z,980.33
2022-11-16T07:11:59.561Z,980.33
2022-11-16T07:12:59.541Z,980.37
2022-11-16T07:13:59.530Z,980.34
2022-11-16T07:14:59.505Z,980.33
2022-11-16T07:15:59.487Z,980.36
2022-11-16T07:17:02.867Z,980.40
2022-11-16T07:17:59.453Z,980.44
2022-11-16T07:18:59.440Z,980.40
2022-11-16T07:19:59.419Z,980.41
2022-11-16T07:20:59.498Z,980.40
2022-11-16T07:21:59.387Z,980.41
2022-11-16T07:23:00.278Z,980.38
2022-11-16T07:23:59.346Z,980.39
2022-11-16T07:24:59.531Z,980.44
2022-11-16T07:25:59.313Z,980.44
2022-11-16T07:26:59.296Z,980.47
2022-11-16T07:27:59.279Z,980.48
2022-11-16T07:28:59.257Z,980.46
2022-11-16T07:29:59.241Z,980.43
2022-11-16T07:30:59.220Z,980.47
2022-11-16T07:31:59.206Z,980.45
2022-11-16T07:32:59.199Z,980.49
2022-11-16T07:33:59.170Z,980.48
2022-11-16T07:34:59.710Z,980.52
2022-11-16T07:35:59.137Z,980.49
2022-11-16T07:36:59.115Z,980.45
2022-11-16T07:37:59.099Z,980.53
2022-11-16T07:38:59.095Z,980.51
2022-11-16T07:39:59.066Z,980.54
2022-11-16T07:40:59.047Z,980.55
2022-11-16T07:41:59.029Z,980.59
2022-11-16T07:42:59.012Z,980.60
2022-11-16T07:43:58.995Z,980.57
2022-11-16T07:44:58.975Z,980.61
2022-11-16T07:46:21.399Z,980.63
2022-11-16T07:46:58.942Z,980.60
2022-11-16T07:47:58.925Z,980.60
2022-11-16T07:48:59.153Z,980.58
2022-11-16T07:49:58.897Z,980.61
2022-11-16T07:50:58.875Z,980.62
2022-11-16T07:51:58.858Z,980.64
2022-11-16T07:52:58.834Z,980.60
2022-11-16T07:53:58.820Z,980.60
2022-11-16T07:54:58.801Z,980.63
2022-11-16T07:55:58.785Z,980.65
2022-11-16T07:56:58.766Z,980.63
2022-11-16T07:57:58.751Z,980.61
2022-11-16T07:58:58.731Z,980.65
2022-11-16T07:59:58.716Z,980.66
2022-11-16T08:00:58.696Z,980.67
2022-11-16T08:01:58.720Z,980.68
2022-11-16T08:02:58.663Z,980.66
2022-11-16T08:03:58.645Z,980.68
2022-11-16T08:04:58.629Z,980.74
2022-11-16T08:05:58.611Z,980.77
2022-11-16T08:06:58.617Z,980.85
2022-11-16T08:07:58.579Z,980.85
2022-11-16T08:08:59.139Z,980.84
2022-11-16T08:09:58.599Z,980.83
2022-11-16T08:10:58.525Z,980.79
2022-11-16T08:11:58.507Z,980.82
2022-11-16T08:12:58.488Z,980.80
2022-11-16T08:13:58.474Z,980.89
2022-11-16T08:14:58.456Z,980.91
2022-11-16T08:15:58.440Z,980.92
2022-11-16T08:16:58.420Z,980.93
2022-11-16T08:17:58.407Z,980.95
2022-11-16T08:18:58.385Z,980.96
2022-11-16T08:19:58.371Z,980.99
2022-11-16T08:20:58.365Z,981.03
2022-11-16T08:21:58.336Z,981.02
2022-11-16T08:22:58.320Z,981.00
2022-11-16T08:23:58.957Z,981.01
2022-11-16T08:24:58.286Z,981.00
2022-11-16T08:25:58.273Z,980.94
2022-11-16T08:26:58.252Z,980.98
2022-11-16T08:27:58.235Z,980.94
2022-11-16T08:28:58.219Z,980.93
2022-11-16T08:29:58.204Z,980.94
2022-11-16T08:30:58.189Z,980.99
2022-11-16T08:31:58.169Z,981.00
2022-11-16T08:32:58.156Z,981.02
2022-11-16T08:33:58.141Z,981.05
2022-11-16T08:34:58.118Z,981.08
2022-11-16T08:35:58.103Z,981.13
2022-11-16T08:36:58.181Z,981.16
2022-11-16T08:37:58.070Z,981.17
2022-11-16T08:38:58.144Z,981.21
2022-11-16T08:39:58.043Z,981.20
2022-11-16T08:40:58.023Z,981.21
2022-11-16T08:41:58.008Z,981.21
2022-11-16T08:42:57.987Z,981.24
2022-11-16T08:43:57.972Z,981.26
2022-11-16T08:44:57.956Z,981.26
2022-11-16T08:45:57.940Z,981.32
2022-11-16T08:46:57.921Z,981.32
2022-11-16T08:48:03.417Z,981.29
2022-11-16T08:48:57.926Z,981.35
2022-11-16T08:49:57.876Z,981.32
2022-11-16T08:51:19.664Z,981.36
2022-11-16T08:51:57.839Z,981.36
2022-11-16T08:52:57.823Z,981.37
2022-11-16T08:53:57.848Z,981.38
2022-11-16T08:54:57.792Z,981.37
2022-11-16T08:55:57.778Z,981.41
2022-11-16T08:56:57.759Z,981.37
2022-11-16T08:57:57.744Z,981.39
2022-11-16T08:58:59.107Z,981.39
2022-11-16T08:59:57.710Z,981.37
2022-11-16T09:00:57.692Z,981.38
2022-11-16T09:01:57.723Z,981.41
2022-11-16T09:02:57.672Z,981.40
2022-11-16T09:03:57.646Z,981.43
2022-11-16T09:04:57.625Z,981.40
2022-11-16T09:05:57.609Z,981.38
2022-11-16T09:06:57.621Z,981.42
2022-11-16T09:07:57.577Z,981.45
2022-11-16T09:08:57.562Z,981.45
2022-11-16T09:09:57.544Z,981.45
2022-11-16T09:10:57.528Z,981.49
2022-11-16T09:11:57.512Z,981.47
2022-11-16T09:12:57.494Z,981.50
2022-11-16T09:13:57.483Z,981.49
2022-11-16T09:14:57.466Z,981.53
2022-11-16T09:15:57.450Z,981.57
2022-11-16T09:16:57.429Z,981.52
2022-11-16T09:17:57.411Z,981.57
2022-11-16T09:18:57.441Z,981.59
2022-11-16T09:19:57.381Z,981.59
2022-11-16T09:20:57.365Z,981.53
2022-11-16T09:21:57.346Z,981.51
2022-11-16T09:22:57.327Z,981.58
2022-11-16T09:23:57.445Z,981.50
2022-11-16T09:24:57.386Z,981.47
2022-11-16T09:25:57.280Z,981.48
2022-11-16T09:26:57.262Z,981.51
2022-11-16T09:27:57.265Z,981.54
2022-11-16T09:28:57.316Z,981.52
2022-11-16T09:29:57.221Z,981.56
2022-11-16T09:30:57.203Z,981.55
2022-11-16T09:31:57.180Z,981.61
2022-11-16T09:32:57.161Z,981.65
2022-11-16T09:33:57.148Z,981.57
2022-11-16T09:34:57.132Z,981.62
2022-11-16T09:35:57.113Z,981.61
2022-11-16T09:36:57.099Z,981.61
2022-11-16T09:37:57.080Z,981.62
2022-11-16T09:39:57.046Z,981.58
2022-11-16T09:40:57.138Z,981.57
2022-11-16T09:41:57.016Z,981.60
2022-11-16T09:42:56.995Z,981.58
2022-11-16T09:43:56.982Z,981.58
2022-11-16T09:44:56.964Z,981.56
2022-11-16T09:45:56.948Z,981.59
2022-11-16T09:46:56.929Z,981.54
2022-11-16T09:47:56.915Z,981.57
2022-11-16T09:48:56.896Z,981.58
2022-11-16T09:50:02.726Z,981.60
2022-11-16T09:50:56.864Z,981.62
2022-11-16T09:51:56.852Z,981.68
2022-11-16T09:52:56.831Z,981.66
2022-11-16T09:53:56.821Z,981.71
2022-11-16T09:54:56.801Z,981.75
2022-11-16T09:55:56.788Z,981.77
2022-11-16T09:56:56.867Z,981.77
2022-11-16T09:57:56.754Z,981.83
2022-11-16T09:58:56.738Z,981.81
2022-11-16T09:59:56.722Z,981.84
2022-11-16T10:00:56.757Z,981.83
2022-11-16T10:01:56.694Z,981.78
2022-11-16T10:02:56.677Z,981.75
2022-11-16T10:03:56.658Z,981.73
2022-11-16T10:04:58.519Z,981.74
2022-11-16T10:05:56.628Z,981.71
2022-11-16T10:06:56.703Z,981.74
2022-11-16T10:07:56.598Z,981.74
2022-11-16T10:08:56.614Z,981.71
2022-11-16T10:09:56.606Z,981.77
2022-11-16T10:10:56.554Z,981.74
2022-11-16T10:11:56.540Z,981.72
2022-11-16T10:12:56.616Z,981.72
2022-11-16T10:14:01.394Z,981.77
2022-11-16T10:14:56.493Z,981.78
2022-11-16T10:15:56.479Z,981.78
2022-11-16T10:16:56.466Z,981.80
2022-11-16T10:17:56.451Z,981.80
2022-11-16T10:18:56.432Z,981.76
2022-11-16T10:19:56.427Z,981.81
2022-11-16T10:20:56.408Z,981.84
2022-11-16T10:21:56.399Z,981.85
2022-11-16T10:22:56.376Z,981.82
2022-11-16T10:23:56.365Z,981.84
2022-11-16T10:24:56.354Z,981.82
2022-11-16T10:25:56.335Z,981.85
2022-11-16T10:26:56.321Z,981.80
2022-11-16T10:27:56.312Z,981.82
2022-11-16T10:28:56.304Z,981.78
2022-11-16T10:29:56.282Z,981.77
2022-11-16T10:30:56.269Z,981.74
2022-11-16T10:31:56.251Z,981.75
2022-11-16T10:32:56.232Z,981.72
2022-11-16T10:33:56.220Z,981.67
2022-11-16T10:34:56.208Z,981.69
2022-11-16T10:35:56.191Z,981.67
2022-11-16T10:36:56.178Z,981.65
2022-11-16T10:37:56.166Z,981.65
2022-11-16T10:38:56.151Z,981.68
2022-11-16T10:39:56.148Z,981.67
2022-11-16T10:40:56.123Z,981.70
2022-11-16T10:41:56.113Z,981.70
2022-11-16T10:42:56.096Z,981.67
2022-11-16T10:43:56.080Z,981.69
2022-11-16T10:44:56.162Z,981.70
2022-11-16T10:45:56.052Z,981.72
2022-11-16T10:46:56.035Z,981.68
2022-11-16T10:47:56.024Z,981.68
2022-11-16T10:48:56.007Z,981.64
2022-11-16T10:49:56.014Z,981.68
2022-11-16T10:50:55.979Z,981.63
2022-11-16T10:51:55.966Z,981.69
2022-11-16T10:52:55.950Z,981.69
2022-11-16T10:53:55.939Z,981.68
2022-11-16T10:54:55.923Z,981.63
2022-11-16T10:55:55.909Z,981.61
2022-11-16T10:56:55.904Z,981.62
2022-11-16T10:57:55.880Z,981.59
2022-11-16T10:58:55.861Z,981.60
2022-11-16T10:59:55.848Z,981.60
2022-11-16T11:00:56.034Z,981.59
2022-11-16T11:01:55.817Z,981.63
2022-11-16T11:02:55.807Z,981.66
2022-11-16T11:03:55.790Z,981.57
2022-11-16T11:04:55.772Z,981.64
2022-11-16T11:05:55.758Z,981.62
2022-11-16T11:06:55.760Z,981.52
2022-11-16T11:07:59.572Z,981.54
2022-11-16T11:08:55.712Z,981.51
2022-11-16T11:09:55.697Z,981.51
2022-11-16T11:10:55.683Z,981.52
2022-11-16T11:11:55.664Z,981.47
2022-11-16T11:12:55.654Z,981.50
2022-11-16T11:13:55.637Z,981.49
2022-11-16T11:14:55.620Z,981.48
2022-11-16T11:15:55.604Z,981.41
2022-11-16T11:16:55.689Z,981.45
2022-11-16T11:17:55.575Z,981.43
2022-11-16T11:18:55.570Z,981.42
2022-11-16T11:19:55.548Z,981.46
2022-11-16T11:20:55.530Z,981.45
2022-11-16T11:21:55.515Z,981.41
2022-11-16T11:22:55.505Z,981.44
2022-11-16T11:23:55.483Z,981.45
2022-11-16T11:24:55.470Z,981.38
2022-11-16T11:25:55.466Z,981.41
2022-11-16T11:26:55.440Z,981.41
2022-11-16T11:27:55.422Z,981.39
2022-11-16T11:28:55.410Z,981.43
2022-11-16T11:29:55.393Z,981.43
2022-11-16T11:30:55.380Z,981.41
2022-11-16T11:31:55.363Z,981.36
2022-11-16T11:32:55.361Z,981.35
2022-11-16T11:33:55.338Z,981.35
2022-11-16T11:34:55.321Z,981.35
2022-11-16T11:35:55.304Z,981.34
2022-11-16T11:36:55.290Z,981.32
2022-11-16T11:37:55.275Z,981.28
2022-11-16T11:38:55.292Z,981.36
2022-11-16T11:39:55.261Z,981.27
2022-11-16T11:41:02.459Z,981.33
2022-11-16T11:42:59.182Z,981.31
2022-11-16T11:43:59.152Z,981.28
2022-11-16T11:46:03.111Z,981.38
2022-11-16T11:49:07.131Z,981.44
2022-11-16T11:50:07.007Z,981.40
2022-11-16T11:51:07.005Z,981.44
2022-11-16T11:52:06.981Z,981.40
2022-11-16T11:53:06.976Z,981.39
2022-11-16T11:54:06.956Z,981.42
2022-11-16T11:55:06.965Z,981.38
2022-11-16T11:56:06.930Z,981.39
2022-11-16T11:57:06.910Z,981.44
2022-11-16T11:58:06.901Z,981.45
2022-11-16T11:59:06.894Z,981.42
2022-11-16T12:00:06.872Z,981.38
2022-11-16T12:01:06.858Z,981.38
2022-11-16T12:02:06.847Z,981.31
2022-11-16T12:03:06.905Z,981.31
2022-11-16T12:04:06.822Z,981.30
2022-11-16T12:05:06.913Z,981.31
2022-11-16T12:06:06.797Z,981.30
2022-11-16T12:07:06.863Z,981.27
2022-11-16T12:08:06.769Z,981.19
2022-11-16T12:09:06.757Z,981.23
2022-11-16T12:10:06.743Z,981.20
2022-11-16T12:11:06.729Z,981.20
2022-11-16T12:12:11.812Z,981.14
2022-11-16T12:13:06.705Z,981.17
2022-11-16T12:14:06.689Z,981.21
2022-11-16T12:15:06.686Z,981.15
2022-11-16T12:16:06.662Z,981.15
2022-11-16T12:17:06.647Z,981.11
2022-11-16T12:18:06.635Z,981.09
2022-11-16T12:19:06.617Z,981.09
2022-11-16T12:20:06.609Z,981.10
2022-11-16T12:21:06.685Z,981.07
2022-11-16T12:22:06.578Z,981.12
2022-11-16T12:23:06.562Z,981.11
2022-11-16T12:24:06.560Z,981.08
2022-11-16T12:25:06.532Z,981.06
2022-11-16T12:26:06.525Z,981.01
2022-11-16T12:27:06.504Z,981.02
2022-11-16T12:28:06.489Z,981.05
2022-11-16T12:29:06.472Z,981.00
2022-11-16T12:30:06.459Z,980.98
2022-11-16T12:31:06.446Z,981.02
2022-11-16T12:32:06.428Z,980.98
2022-11-16T12:33:06.412Z,980.98
2022-11-16T12:34:06.400Z,981.00
2022-11-16T12:35:06.383Z,980.99
2022-11-16T12:36:06.372Z,980.94
2022-11-16T12:37:06.353Z,980.97
2022-11-16T12:38:06.339Z,980.99
2022-11-16T12:39:06.322Z,980.91
2022-11-16T12:40:06.310Z,980.90
2022-11-16T12:41:06.300Z,980.92
2022-11-16T12:42:06.277Z,980.87
2022-11-16T12:43:06.261Z,980.89
2022-11-16T12:44:06.246Z,980.88
2022-11-16T12:45:06.235Z,980.84
2022-11-16T12:46:06.218Z,980.90
2022-11-16T12:47:06.205Z,980.89
2022-11-16T12:48:06.195Z,980.85
2022-11-16T12:49:06.170Z,980.87
2022-11-16T12:50:06.153Z,980.81
2022-11-16T12:51:06.142Z,980.81
2022-11-16T12:52:06.124Z,980.79
2022-11-16T12:53:06.199Z,980.77
2022-11-16T12:54:06.104Z,980.72
2022-11-16T12:56:06.066Z,980.88
2022-11-16T12:57:06.050Z,980.84
2022-11-16T12:58:06.031Z,980.82
2022-11-16T12:59:06.014Z,980.82
2022-11-16T13:00:06.007Z,980.79
2022-11-16T13:01:06.077Z,980.85
2022-11-16T13:02:05.965Z,980.80
2022-11-16T13:03:05.955Z,980.82
2022-11-16T13:04:05.940Z,980.80
2022-11-16T13:05:05.920Z,980.81
2022-11-16T13:06:05.906Z,980.78
2022-11-16T13:07:10.636Z,980.79
2022-11-16T13:08:05.873Z,980.67
2022-11-16T13:09:05.959Z,980.67
2022-11-16T13:10:05.846Z,980.63
2022-11-16T13:11:05.828Z,980.58
2022-11-16T13:12:05.816Z,980.63
2022-11-16T13:13:36.779Z,980.62
2022-11-16T13:14:05.783Z,980.60
2022-11-16T13:15:05.769Z,980.64
2022-11-16T13:16:05.756Z,980.60
2022-11-16T13:17:05.742Z,980.55
2022-11-16T13:18:05.730Z,980.55
2022-11-16T13:19:05.714Z,980.50
2022-11-16T13:20:10.222Z,980.53
2022-11-16T13:21:05.681Z,980.51
2022-11-16T13:22:05.668Z,980.50
2022-11-16T13:23:05.654Z,980.50
2022-11-16T13:24:05.640Z,980.49